Latest Weather Observations for Badgingarra

IDW60801

Issued at 4:40 pm WST Sunday 1 February 2015 (issued every 30 minutes, with the page automatically refreshed every 10 minutes)

About weather observations | Map of weather stations | Latest weather observations for WA | Other Formats
Station Details ID: 009037 Name: BADGINGARRA RESEARCH STN Lat: -30.34 Lon: 115.54 Height: 275.0 m
Data from the previous 72 hours. | See also: Recent months at Badgingarra
Date/Time
WST
Temp
°C
App
Temp
°C
Dew
Point
Rel
Hum
%
Delta-T
°C
Wind Press
QNH
hPa
Press
MSL
hPa
Rain
since 9 am
mm
Dir
 
Spd
km/h
Gust
km/h
Spd
kts
Gust
kts
01/04:30pm 31.1 26.9 12.5 32 11.1 WSW 26 33 14 18 - - 0.0
01/04:00pm 34.2 30.6 13.1 28 12.9 WSW 24 48 13 26 - - 0.0
01/03:30pm 33.0 31.7 12.6 29 12.3 WNW 11 22 6 12 - - 0.0
01/03:00pm 34.0 32.9 11.8 26 13.3 SSW 9 19 5 10 - - 0.0
01/02:30pm 33.3 31.0 11.8 27 12.8 W 15 26 8 14 - - 0.0
01/02:00pm 34.8 32.5 11.9 25 13.8 N 15 26 8 14 - - 0.0
01/01:30pm 33.4 32.1 11.3 26 13.1 NNE 9 20 5 11 - - 0.0
01/01:00pm 33.1 30.4 11.6 27 12.8 N 17 37 9 20 - - 0.0
01/12:30pm 32.4 30.2 12.1 29 12.1 NNE 15 22 8 12 - - 0.0
01/12:00pm 32.2 29.6 11.9 29 12.1 NE 17 35 9 19 - - 0.0
01/11:30am 32.4 28.7 11.6 28 12.3 NNE 22 35 12 19 - - 0.0
01/11:00am 32.1 28.7 11.3 28 12.3 NE 20 30 11 16 - - 0.0
01/10:30am 31.0 25.8 10.4 28 11.9 ENE 28 37 15 20 - - 0.0
01/10:23am 30.7 25.5 10.1 28 11.8 ENE 28 46 15 25 - - 0.0
01/10:00am 30.2 24.1 9.7 28 11.7 ENE 32 41 17 22 - - 0.0
01/09:30am 28.9 22.9 10.1 31 10.7 ENE 32 43 17 23 - - 0.0
01/09:00am 26.9 22.2 9.3 33 9.8 E 24 30 13 16 - - 0.8
01/08:30am 26.0 21.5 10.2 37 8.9 E 24 32 13 17 - - 0.8
01/08:00am 23.7 18.8 10.0 42 7.6 E 26 37 14 20 - - 0.8
01/07:30am 22.6 18.2 10.4 46 6.8 E 24 32 13 17 - - 0.8
01/07:00am 22.8 18.5 10.6 46 6.8 E 24 33 13 18 - - 0.8
01/06:30am 22.6 18.3 10.7 47 6.6 E 24 43 13 23 - - 0.8
01/06:00am 22.4 17.5 11.2 49 6.3 E 28 41 15 22 - - 0.8
01/05:30am 22.2 16.4 11.6 51 6.0 E 33 48 18 26 - - 0.8
01/05:00am 22.0 16.5 12.0 53 5.7 E 32 44 17 24 - - 0.8
01/04:30am 22.7 15.7 11.4 49 6.4 E 39 50 21 27 - - 0.8
01/04:00am 22.8 16.2 11.5 49 6.4 E 37 54 20 29 - - 0.8
01/03:30am 22.8 17.1 11.8 50 6.3 ENE 33 44 18 24 - - 0.8
01/03:00am 22.6 17.0 12.0 51 6.1 ENE 33 44 18 24 - - 0.8
01/02:30am 22.6 18.7 12.0 51 6.1 ENE 24 37 13 20 - - 0.8
01/02:00am 23.2 18.9 11.9 49 6.5 ENE 26 35 14 19 - - 0.8
01/01:30am 23.8 19.4 11.8 47 6.9 ENE 26 37 14 20 - - 0.8
01/01:00am 23.7 18.9 11.7 47 6.9 ENE 28 37 15 20 - - 0.8
01/12:30am 23.7 19.3 11.7 47 6.9 ENE 26 39 14 21 - - 0.8
01/12:00am 23.5 19.5 11.9 48 6.6 E 24 35 13 19 - - 0.8
 
Date/Time
WST
Temp
°C
App
Temp
°C
Dew
Point
Rel
Hum
%
Delta-T
°C
Wind Press
QNH
hPa
Press
MSL
hPa
Rain
since 9 am
mm
Dir
 
Spd
km/h
Gust
km/h
Spd
kts
Gust
kts
31/11:30pm 23.6 19.3 12.0 48 6.7 E 26 35 14 19 - - 0.8
31/11:00pm 24.3 19.9 11.6 45 7.3 E 26 39 14 21 - - 0.8
31/10:30pm 24.5 20.0 11.5 44 7.4 E 26 35 14 19 - - 0.8
31/10:00pm 24.5 20.5 11.8 45 7.3 ESE 24 32 13 17 - - 0.8
31/09:30pm 23.6 20.3 12.9 51 6.2 SE 22 28 12 15 - - 0.8
31/09:00pm 23.5 23.0 13.7 54 5.8 SSE 9 13 5 7 - - 0.8
31/08:30pm 22.2 22.4 14.6 62 4.5 W 7 9 4 5 - - 0.8
31/08:00pm 23.3 23.4 13.8 55 5.6 SSE 6 9 3 5 - - 0.8
31/07:30pm 23.7 22.5 14.1 55 5.7 S 13 17 7 9 - - 0.8
31/07:00pm 24.2 22.2 14.0 53 6.1 SSE 17 20 9 11 - - 0.8
31/06:30pm 24.3 21.0 14.1 53 6.1 SE 24 33 13 18 - - 0.8
31/06:00pm 24.0 20.3 15.0 57 5.4 SE 28 35 15 19 - - 0.8
31/05:30pm 23.8 20.8 14.8 57 5.4 SE 24 32 13 17 - - 0.8
31/05:00pm 23.4 20.9 15.2 60 5.0 SE 22 35 12 19 - - 0.8
31/04:30pm 22.8 19.9 15.1 62 4.6 SE 24 35 13 19 - - 0.8
31/04:00pm 22.1 19.9 15.9 68 3.8 SE 22 30 12 16 - - 0.8
31/03:30pm 22.0 19.7 15.8 68 3.8 ESE 22 32 12 17 - - 0.8
31/03:00pm 21.4 18.9 16.1 72 3.2 ESE 24 33 13 18 - - 0.8
31/02:30pm 21.5 19.3 16.0 71 3.3 ESE 22 32 12 17 - - 0.8
31/02:00pm 20.8 18.6 16.0 74 2.9 ESE 22 30 12 16 - - 0.8
31/01:30pm 20.9 19.3 16.1 74 2.9 E 19 24 10 13 - - 0.6
31/01:00pm 21.6 19.8 15.4 68 3.7 E 19 24 10 13 - - 0.0
31/12:30pm 23.5 20.4 13.4 53 5.9 E 22 30 12 16 - - 0.0
31/12:00pm 24.5 20.6 12.1 46 7.2 E 24 33 13 18 - - 0.0
31/11:30am 24.5 18.9 11.5 44 7.4 E 32 43 17 23 - - 0.0
31/11:00am 24.1 19.0 11.8 46 7.1 E 30 37 16 20 - - 0.0
31/10:30am 24.0 19.6 11.7 46 7.0 E 26 33 14 18 - - 0.0
31/10:00am 23.3 19.3 11.7 48 6.6 E 24 35 13 19 - - 0.0
31/09:30am 22.6 18.2 11.7 50 6.2 E 26 37 14 20 - - 0.0
31/09:00am 22.5 19.0 12.2 52 5.9 ESE 22 32 12 17 - - 0.0
31/08:30am 22.3 18.0 12.0 52 5.9 E 26 33 14 18 - - 0.0
31/08:00am 21.6 17.0 12.2 55 5.4 E 28 41 15 22 - - 0.0
31/07:30am 21.4 15.8 12.0 55 5.3 ESE 33 46 18 25 - - 0.0
31/07:00am 21.2 15.5 11.8 55 5.3 ESE 33 46 18 25 - - 0.0
31/06:30am 21.2 16.7 11.5 54 5.5 ESE 26 33 14 18 - - 0.0
31/06:00am 21.5 17.4 11.5 53 5.6 SE 24 35 13 19 - - 0.0
31/05:30am 21.9 17.4 11.3 51 6.0 ESE 26 39 14 21 - - 0.0
31/05:00am 22.4 17.4 10.9 48 6.4 ESE 28 35 15 19 - - 0.0
31/04:30am 23.1 17.0 10.5 45 7.0 E 33 50 18 27 - - 0.0
31/04:00am 24.0 17.3 9.6 40 7.9 SE 35 52 19 28 - - 0.0
31/03:30am 25.1 18.0 8.1 34 9.2 SE 35 52 19 28 - - 0.0
31/03:00am 26.0 19.4 7.6 31 9.9 SE 32 46 17 25 - - 0.0
31/02:30am 26.4 20.7 6.9 29 10.4 SE 26 37 14 20 - - 0.0
31/02:00am 26.6 21.2 8.1 31 10.1 SE 26 33 14 18 - - 0.0
31/01:30am 26.7 23.1 10.0 35 9.4 SE 19 26 10 14 - - 0.0
31/01:00am 26.9 23.6 9.7 34 9.6 SE 17 24 9 13 - - 0.0
31/12:30am 27.7 24.3 9.0 31 10.4 ESE 17 22 9 12 - - 0.0
31/12:00am 28.2 24.8 9.0 30 10.7 E 17 26 9 14 - - 0.0
 
Date/Time
WST
Temp
°C
App
Temp
°C
Dew
Point
Rel
Hum
%
Delta-T
°C
Wind Press
QNH
hPa
Press
MSL
hPa
Rain
since 9 am
mm
Dir
 
Spd
km/h
Gust
km/h
Spd
kts
Gust
kts
30/11:30pm 27.8 23.6 9.6 32 10.2 ENE 22 30 12 16 - - 0.0
30/11:00pm 27.4 24.9 9.7 33 9.9 ENE 13 19 7 10 - - 0.0
30/10:30pm 27.5 25.3 9.3 32 10.2 ESE 11 17 6 9 - - 0.0
30/10:00pm 28.6 24.7 8.8 29 11.0 E 19 26 10 14 - - 0.0
30/09:30pm 29.3 24.6 7.8 26 11.8 ESE 22 32 12 17 - - 0.0
30/09:00pm 28.9 24.8 8.0 27 11.5 ESE 19 28 10 15 - - 0.0
30/08:30pm 29.0 24.8 8.1 27 11.5 ESE 20 30 11 16 - - 0.0
30/08:00pm 29.7 24.7 8.2 26 11.9 ESE 24 32 13 17 - - 0.0
30/07:30pm 29.9 25.3 8.3 26 12.0 SE 22 32 12 17 - - 0.0
30/07:00pm 30.8 24.4 8.5 25 12.5 SE 32 44 17 24 - - 0.0
30/06:30pm 32.3 25.7 8.5 23 13.4 ESE 33 46 18 25 - - 0.0
30/06:00pm 33.6 26.2 8.3 21 14.3 ESE 37 50 20 27 - - 0.0
30/05:30pm 33.6 26.4 7.6 20 14.6 ESE 35 46 19 25 - - 0.0
30/05:00pm 35.7 28.3 6.9 17 16.1 SE 35 61 19 33 - - 0.0
30/04:58pm 35.5 28.5 6.7 17 16.0 SE 33 59 18 32 - - 0.0
30/04:30pm 36.0 29.1 7.1 17 16.2 ESE 33 52 18 28 - - 0.0
30/04:00pm 36.0 29.1 7.1 17 16.2 SE 33 54 18 29 - - 0.0
30/03:47pm 35.7 29.1 8.5 19 15.6 SSE 33 54 18 29 - - 0.0
30/03:30pm 34.7 27.9 7.7 19 15.2 SE 33 46 18 25 - - 0.0
30/03:23pm 35.1 28.8 7.2 18 15.6 SE 30 46 16 25 - - 0.0
30/03:00pm 35.5 30.6 6.7 17 16.0 SE 22 41 12 22 - - 0.0
30/02:30pm 36.6 31.7 6.7 16 16.7 SE 22 32 12 17 - - 0.0
30/02:00pm 34.6 28.9 6.8 18 15.4 ESE 26 39 14 21 - - 0.0
30/01:30pm 35.1 30.7 6.4 17 15.9 ESE 19 26 10 14 - - 0.0
30/01:00pm 36.1 30.9 7.2 17 16.3 E 24 37 13 20 - - 0.0
30/12:30pm 35.3 28.8 6.6 17 16.0 E 30 39 16 21 - - 0.0
30/12:00pm 36.5 30.6 7.5 17 16.4 ENE 28 43 15 23 - - 0.0
30/11:30am 33.2 27.8 6.5 19 14.7 E 24 39 13 21 - - 0.0
30/11:00am 30.5 25.9 8.3 25 12.4 ESE 22 33 12 18 - - 0.0
30/10:30am 29.0 23.9 7.6 26 11.7 ESE 24 33 13 18 - - 0.0
30/10:00am 29.2 23.5 6.6 24 12.2 ESE 26 35 14 19 - - 0.0
30/09:30am 28.6 24.3 7.8 27 11.4 SE 20 32 11 17 - - 0.0
30/09:00am 27.4 24.0 7.8 29 10.7 ESE 15 20 8 11 - - 0.0
30/08:30am 27.9 23.6 7.7 28 11.0 ESE 20 33 11 18 - - 0.0
30/08:00am 26.8 23.3 8.7 32 10.0 ESE 17 26 9 14 - - 0.0
30/07:30am 25.8 24.9 10.8 39 8.5 N 6 13 3 7 - - 0.0
30/07:00am 25.8 22.7 10.4 38 8.7 SSE 17 22 9 12 - - 0.0
30/06:30am 23.9 21.3 13.2 51 6.3 SSE 19 26 10 14 - - 0.0
30/06:00am 21.1 21.1 15.2 69 3.5 SE 9 13 5 7 - - 0.0
30/05:30am 21.0 19.2 16.0 73 3.0 SSE 20 24 11 13 - - 0.0
30/05:00am 19.5 18.4 16.3 82 1.9 SSE 17 19 9 10 - - 0.0
30/04:30am 18.8 18.7 16.0 84 1.7 SSE 11 13 6 7 - - 0.0
30/04:00am 19.3 19.7 16.3 83 1.8 SSW 9 11 5 6 - - 0.0
30/03:30am 19.9 19.3 16.7 82 2.0 S 15 20 8 11 - - 0.0
30/03:00am 19.9 19.6 16.5 81 2.1 S 13 17 7 9 - - 0.0
30/02:30am 20.3 20.3 16.3 78 2.4 SSW 11 13 6 7 - - 0.0
30/02:00am 21.1 20.7 15.2 69 3.5 SSW 11 15 6 8 - - 0.0
30/01:30am 21.2 20.9 15.5 70 3.4 SSE 11 13 6 7 - - 0.0
30/01:00am 20.7 21.0 15.9 74 2.9 SSE 9 11 5 6 - - 0.0
30/12:30am 21.2 21.1 16.0 72 3.2 SSE 11 13 6 7 - - 0.0
30/12:00am 21.2 21.2 16.2 73 3.0 SSW 11 11 6 6 - - 0.0
 
Date/Time
WST
Temp
°C
App
Temp
°C
Dew
Point
Rel
Hum
%
Delta-T
°C
Wind Press
QNH
hPa
Press
MSL
hPa
Rain
since 9 am
mm
Dir
 
Spd
km/h
Gust
km/h
Spd
kts
Gust
kts
29/11:30pm 22.0 22.1 16.5 71 3.4 SW 11 13 6 7 - - 0.0
29/11:00pm 22.2 22.2 14.3 61 4.7 SSW 7 9 4 5 - - 0.0
29/10:30pm 22.6 22.4 13.7 57 5.2 SSW 7 9 4 5 - - 0.0
29/10:00pm 24.7 24.3 14.2 52 6.3 E 9 13 5 7 - - 0.0
29/09:30pm 25.0 24.8 14.8 53 6.2 E 9 13 5 7 - - 0.0
29/09:00pm 25.2 23.9 14.9 52 6.2 E 15 24 8 13 - - 0.0
29/08:30pm 24.8 24.1 15.4 56 5.7 NE 13 17 7 9 - - 0.0
29/08:00pm 25.2 25.7 14.9 52 6.2 NNE 6 9 3 5 - - 0.0
29/07:30pm 26.8 24.0 14.2 46 7.6 NE 22 39 12 21 - - 0.0
29/07:00pm 30.6 28.6 13.8 35 10.2 S 17 22 9 12 - - 0.0
29/06:30pm 30.7 27.5 14.3 36 10.1 S 24 30 13 16 - - 0.0
29/06:00pm 31.3 27.0 14.4 35 10.4 SSW 30 37 16 20 - - 0.0
29/05:30pm 32.1 27.0 13.8 33 11.2 S 33 44 18 24 - - 0.0
29/05:00pm 32.4 27.4 14.1 33 11.3 SSW 33 43 18 23 - - 0.0

Other Formats:

Comma delimited format used in spreadsheet applications
http://www.bom.gov.au/fwo/IDW60801/IDW60801.94603.axf

JavaScript Object Notation format (JSON) in row-major order
http://www.bom.gov.au/fwo/IDW60801/IDW60801.94603.json